Time;durP1;ratioP1;P1;durP2;ratioP2;P2;SDS_P1;SDS_P2;PMS_P1;PMS_P2;Temp;Humidity;BMP_temperature;BMP_pressure;BME280_temperature;BME280_humidity;BME280_pressure;Samples;Min_cycle;Max_cycle;Signal;HPM_P1;HPM_P2
2022/07/28 00:02:14;;;;;;;;;2.50;2.50;;;;;21.04;37.71;101233.88;5079211;27;45539;-63
2022/07/28 00:04:39;;;;;;;;;1.00;1.00;;;;;21.03;37.22;101234.91;5079744;27;45458;-63
2022/07/28 00:07:05;;;;;;;;;2.00;2.00;;;;;20.97;37.33;101222.19;5079542;27;45344;-60
2022/07/28 00:09:30;;;;;;;;;1.75;1.75;;;;;20.89;37.55;101213.19;5079046;27;46286;-64
2022/07/28 00:11:56;;;;;;;;;3.25;2.00;;;;;20.95;37.51;101233.22;5079112;28;45273;-61
2022/07/28 00:14:22;;;;;;;;;3.50;3.50;;;;;20.91;37.33;101215.72;5079073;27;45311;-64
2022/07/28 00:16:47;;;;;;;;;2.50;2.50;;;;;20.84;37.80;101215.69;5079365;27;45433;-64
2022/07/28 00:19:13;;;;;;;;;2.00;2.00;;;;;20.86;37.72;101224.44;5078806;27;47169;-61
2022/07/28 00:21:38;;;;;;;;;1.00;1.00;;;;;20.85;38.06;101211.09;5078839;27;45286;-63
2022/07/28 00:24:04;;;;;;;;;3.00;3.00;;;;;20.82;38.22;101215.06;5078923;27;45841;-57
2022/07/28 00:26:29;;;;;;;;;4.25;2.00;;;;;20.82;38.14;101208.84;5079022;28;45446;-59
2022/07/28 00:28:55;;;;;;;;;3.50;3.50;;;;;20.67;38.36;101182.75;5076687;27;46257;-62
2022/07/28 00:31:20;;;;;;;;;2.00;2.00;;;;;20.82;37.70;101200.72;5079058;27;45218;-62
2022/07/28 00:33:45;;;;;;;;;1.25;1.25;;;;;20.82;37.84;101201.56;5078903;28;45343;-64
2022/07/28 00:36:12;;;;;;;;;2.00;2.00;;;;;20.83;37.90;101196.97;5078740;28;45420;-61
2022/07/28 00:38:38;;;;;;;;;1.75;1.00;;;;;20.81;37.95;101201.72;5077250;28;46135;-62
2022/07/28 00:41:12;;;;;;;;;3.50;2.00;;;;;20.81;37.88;101190.91;5078539;27;45398;-57
2022/07/28 00:43:45;;;;;;;;;2.00;2.00;;;;;20.80;38.10;101191.97;5078789;27;45357;-63
2022/07/28 00:46:11;;;;;;;;;1.00;1.00;;;;;20.78;37.98;101183.25;5078746;27;45352;-64
2022/07/28 00:48:42;;;;;;;;;2.00;1.00;;;;;20.77;38.21;101189.66;5078635;27;46055;-56
2022/07/28 00:51:08;;;;;;;;;2.25;2.25;;;;;20.76;38.18;101185.28;5078477;27;45458;-63
2022/07/28 00:53:34;;;;;;;;;1.00;1.00;;;;;20.65;38.38;101167.81;5078679;27;45247;-63
2022/07/28 00:56:00;;;;;;;;;1.00;1.00;;;;;20.69;38.37;101174.47;5078675;27;45266;-60
2022/07/28 00:58:26;;;;;;;;;1.25;1.25;;;;;20.74;38.41;101180.09;5078164;27;45251;-56
2022/07/28 01:00:52;;;;;;;;;2.50;2.00;;;;;20.73;38.32;101185.69;5078231;27;45447;-62
2022/07/28 01:03:18;;;;;;;;;3.75;3.75;;;;;20.62;38.16;101158.22;5078409;27;45376;-60
2022/07/28 01:06:01;;;;;;;;;2.25;2.25;;;;;20.74;38.11;101171.16;5078488;28;45435;-63
2022/07/28 01:08:54;;;;;;;;;2.00;2.00;;;;;20.71;38.49;101175.09;5077854;27;45473;-63
2022/07/28 01:11:35;;;;;;;;;2.50;2.00;;;;;20.62;38.27;101163.63;5077998;27;45286;-62
2022/07/28 01:14:10;;;;;;;;;2.00;2.00;;;;;20.65;38.33;101157.81;5077966;27;45446;-60
2022/07/28 01:16:44;;;;;;;;;1.25;1.25;;;;;20.67;38.16;101160.31;5078359;27;45505;-63
2022/07/28 01:19:32;;;;;;;;;2.00;2.00;;;;;20.63;38.08;101159.88;5078039;27;45284;-59
2022/07/28 01:22:00;;;;;;;;;2.00;2.00;;;;;20.66;39.08;101156.78;5078144;27;45314;-59
2022/07/28 01:24:32;;;;;;;;;2.00;2.00;;;;;20.68;38.38;101160.09;5077919;27;45191;-54
2022/07/28 01:27:04;;;;;;;;;3.50;3.00;;;;;20.67;38.32;101154.91;5078212;27;45324;-54
2022/07/28 01:30:13;;;;;;;;;2.00;2.00;;;;;20.68;38.46;101170.91;5078005;27;46221;-55
2022/07/28 01:32:47;;;;;;;;;7.25;1.00;;;;;20.67;38.88;101157.59;5077889;27;45418;-57
2022/07/28 01:35:20;;;;;;;;;1.00;1.00;;;;;20.68;38.38;101164.66;5077998;28;45292;-62
2022/07/28 01:37:56;;;;;;;;;4.00;1.00;;;;;20.65;38.57;101151.59;5078119;27;45316;-64
2022/07/28 01:40:26;;;;;;;;;3.00;1.00;;;;;20.53;38.88;101145.94;5077315;27;47185;-58
2022/07/28 01:42:57;;;;;;;;;1.00;1.00;;;;;20.63;38.36;101162.59;5077379;28;45354;-60
2022/07/28 01:45:24;;;;;;;;;1.50;1.50;;;;;20.61;38.50;101161.13;5077988;27;45256;-60
2022/07/28 01:47:53;;;;;;;;;3.00;3.00;;;;;20.55;38.80;101151.94;5077914;27;45362;-63
2022/07/28 01:50:21;;;;;;;;;3.00;3.00;;;;;20.47;39.15;101138.56;5077675;27;46071;-64
2022/07/28 01:52:48;;;;;;;;;1.00;1.00;;;;;20.60;39.23;101157.56;5077637;28;45332;-64
2022/07/28 01:55:17;;;;;;;;;5.75;2.00;;;;;20.64;39.08;101153.44;5077578;27;45187;-63
2022/07/28 01:57:45;;;;;;;;;2.00;1.75;;;;;20.62;39.09;101150.09;5077994;27;45343;-63
2022/07/28 02:00:12;;;;;;;;;4.25;2.00;;;;;20.64;38.71;101150.72;5077307;27;46285;-62
2022/07/28 02:02:41;;;;;;;;;2.00;1.75;;;;;20.64;38.95;101149.91;5077569;27;45503;-56
2022/07/28 02:05:08;;;;;;;;;1.75;1.75;;;;;20.62;38.96;101147.41;5077373;27;45378;-64
2022/07/28 02:07:36;;;;;;;;;1.00;1.00;;;;;20.60;38.79;101146.75;5077576;27;45498;-62
2022/07/28 02:10:04;;;;;;;;;2.00;2.00;;;;;20.55;38.89;101151.13;5077237;27;46458;-57
2022/07/28 02:12:32;;;;;;;;;2.00;2.00;;;;;20.51;39.01;101142.56;5077356;27;45309;-62
2022/07/28 02:14:59;;;;;;;;;4.00;2.25;;;;;20.46;39.33;101130.69;5077240;27;45460;-62
2022/07/28 02:17:29;;;;;;;;;3.00;3.00;;;;;20.46;38.85;101141.50;5077182;28;45466;-62
2022/07/28 02:19:56;;;;;;;;;2.00;2.00;;;;;20.39;39.18;101131.50;5077260;27;45264;-57
2022/07/28 02:22:23;;;;;;;;;2.00;2.00;;;;;20.25;39.37;101099.22;5077226;28;45416;-56
2022/07/28 02:24:49;;;;;;;;;2.50;2.50;;;;;20.26;39.26;101100.88;5077231;28;45450;-61
2022/07/28 02:27:37;;;;;;;;;3.00;3.00;;;;;20.37;39.51;101120.03;5077346;28;45488;-63
2022/07/28 02:30:11;;;;;;;;;2.25;2.25;;;;;20.39;39.26;101115.28;5076947;28;46371;-63
2022/07/28 02:32:52;;;;;;;;;3.00;3.00;;;;;20.40;39.70;101125.06;5076915;27;45252;-63
2022/07/28 02:35:38;;;;;;;;;3.00;3.00;;;;;20.43;39.86;101129.22;5076901;27;45281;-62
2022/07/28 02:38:12;;;;;;;;;5.75;2.00;;;;;20.44;39.55;101128.19;5077181;27;45438;-58
2022/07/28 02:40:41;;;;;;;;;1.75;1.00;;;;;20.44;39.53;101122.78;5076827;27;46148;-61
2022/07/28 02:43:11;;;;;;;;;1.75;1.75;;;;;20.47;39.65;101121.53;5076708;27;45375;-61
2022/07/28 02:45:41;;;;;;;;;3.00;1.00;;;;;20.46;39.61;101114.47;5076843;27;45448;-59
2022/07/28 02:48:10;;;;;;;;;3.00;3.00;;;;;20.50;39.77;101124.69;5077167;28;45289;-63
2022/07/28 02:50:39;;;;;;;;;1.00;1.00;;;;;20.51;39.45;101117.41;5076725;27;45417;-56
2022/07/28 02:53:06;;;;;;;;;2.00;2.00;;;;;20.50;39.47;101124.69;5079709;27;45398;-63
2022/07/28 02:55:33;;;;;;;;;1.50;1.25;;;;;20.52;39.60;101119.09;5080339;27;45503;-61
2022/07/28 02:58:00;;;;;;;;;2.00;2.00;;;;;20.45;39.67;101113.63;5080384;27;45442;-63
2022/07/28 03:00:27;;;;;;;;;2.75;2.00;;;;;20.51;39.54;101112.03;5079869;27;45470;-64
2022/07/28 03:02:55;;;;;;;;;2.00;2.00;;;;;20.48;39.65;101121.38;5080528;27;45494;-64
2022/07/28 03:05:21;;;;;;;;;4.75;3.00;;;;;20.34;39.46;101092.59;5080536;28;45379;-63
2022/07/28 03:07:51;;;;;;;;;3.00;2.25;;;;;20.37;39.22;101111.13;5080829;27;45242;-62
2022/07/28 03:10:25;;;;;;;;;1.25;1.25;;;;;20.45;39.61;101116.34;5080165;27;46238;-64
2022/07/28 03:12:52;;;;;;;;;2.50;2.50;;;;;20.42;39.81;101112.16;5079915;27;45179;-63
2022/07/28 03:15:18;;;;;;;;;2.00;2.00;;;;;20.29;39.30;101097.78;5080063;27;45296;-63
2022/07/28 03:17:43;;;;;;;;;4.00;3.00;;;;;20.40;40.01;101116.13;5080456;28;45315;-61
2022/07/28 03:20:10;;;;;;;;;3.75;3.00;;;;;20.38;39.74;101118.19;5084073;27;46224;-58
2022/07/28 03:22:36;;;;;;;;;2.25;2.25;;;;;20.37;39.72;101121.91;5081335;27;45212;-64
2022/07/28 03:25:09;;;;;;;;;3.25;2.00;;;;;20.34;39.55;101125.03;5080075;27;45276;-59
2022/07/28 03:27:38;;;;;;;;;2.50;2.50;;;;;20.29;39.63;101114.81;5080730;27;45310;-57
2022/07/28 03:30:07;;;;;;;;;2.50;2.00;;;;;20.32;39.78;101117.13;5080931;27;45375;-55
2022/07/28 03:32:35;;;;;;;;;3.00;3.00;;;;;20.32;39.74;101110.91;5081036;27;45439;-56
2022/07/28 03:35:01;;;;;;;;;4.25;2.50;;;;;20.32;40.04;101114.44;5080916;27;45489;-60
2022/07/28 03:37:37;;;;;;;;;3.00;1.00;;;;;20.35;39.89;101118.56;5079256;27;45696;-63
2022/07/28 03:40:04;;;;;;;;;3.00;3.00;;;;;20.35;39.76;101113.16;5080233;27;46231;-55
2022/07/28 03:42:30;;;;;;;;;2.00;2.00;;;;;20.35;40.20;101118.56;5080898;27;45420;-62
2022/07/28 03:44:55;;;;;;;;;2.00;2.00;;;;;20.32;39.96;101113.59;5082411;27;45391;-58
2022/07/28 03:47:24;;;;;;;;;3.25;3.00;;;;;20.25;40.07;101102.75;5081043;27;45272;-62
2022/07/28 03:49:49;;;;;;;;;3.00;3.00;;;;;20.30;40.04;101115.66;5080772;28;45266;-63
2022/07/28 03:52:16;;;;;;;;;2.00;2.00;;;;;20.28;40.35;101110.47;5081624;27;45388;-59
2022/07/28 03:54:41;;;;;;;;;1.50;1.50;;;;;20.28;40.39;101115.84;5080494;28;45405;-58
2022/07/28 03:57:07;;;;;;;;;2.00;2.00;;;;;20.24;40.15;101111.06;5080053;27;45224;-58
2022/07/28 03:59:32;;;;;;;;;4.33;3.00;;;;;20.25;40.10;101112.72;5079165;27;46246;-59
2022/07/28 04:01:58;;;;;;;;;3.25;3.00;;;;;20.22;40.28;101115.81;5079186;27;45368;-64
2022/07/28 04:04:23;;;;;;;;;2.25;2.00;;;;;20.12;40.19;101100.81;5078182;27;45289;-61
2022/07/28 04:06:49;;;;;;;;;1.75;1.75;;;;;20.21;40.39;101116.84;5079532;27;45378;-57
2022/07/28 04:09:14;;;;;;;;;1.50;1.50;;;;;20.15;40.22;101108.53;5079894;27;46106;-57
2022/07/28 04:11:40;;;;;;;;;1.75;1.75;;;;;20.18;40.56;101116.25;5079996;27;45539;-58
2022/07/28 04:14:06;;;;;;;;;4.50;2.50;;;;;20.18;40.46;101124.34;5081401;27;45443;-59
2022/07/28 04:16:31;;;;;;;;;2.50;2.50;;;;;20.18;40.50;101118.94;5080195;27;45442;-62
2022/07/28 04:18:57;;;;;;;;;3.00;3.00;;;;;20.13;40.76;101098.94;5079254;27;46100;-58
2022/07/28 04:21:22;;;;;;;;;1.50;1.50;;;;;20.18;40.37;101112.69;5079302;27;45327;-54
2022/07/28 04:23:48;;;;;;;;;3.00;3.00;;;;;20.17;40.66;101105.63;5079014;27;45348;-61
2022/07/28 04:26:13;;;;;;;;;2.00;2.00;;;;;20.18;40.84;101109.97;5079514;27;45451;-61
2022/07/28 04:28:39;;;;;;;;;3.00;3.00;;;;;20.19;40.72;101108.97;5079473;27;46184;-60
2022/07/28 04:31:04;;;;;;;;;5.67;3.00;;;;;20.19;40.74;101101.69;5079341;27;45424;-57
2022/07/28 04:33:30;;;;;;;;;4.00;3.00;;;;;20.22;40.52;101103.13;5077944;27;45406;-55
2022/07/28 04:35:55;;;;;;;;;5.67;4.00;;;;;20.16;40.57;101095.84;5079029;27;45535;-55
2022/07/28 04:38:21;;;;;;;;;3.00;3.00;;;;;20.24;40.35;101100.25;5078935;27;46222;-64
2022/07/28 04:40:47;;;;;;;;;2.33;2.33;;;;;20.25;40.46;101107.31;5079248;27;45352;-56
2022/07/28 04:43:12;;;;;;;;;4.00;4.00;;;;;20.24;40.58;101102.97;5079587;27;45310;-60
2022/07/28 04:45:38;;;;;;;;;3.00;3.00;;;;;20.19;40.43;101104.41;5079133;27;45502;-57
2022/07/28 04:48:04;;;;;;;;;5.00;3.33;;;;;20.20;40.75;101110.63;5077358;27;48210;-56
2022/07/28 04:50:30;;;;;;;;;4.00;2.50;;;;;20.19;40.64;101099.00;5078677;27;45499;-56
2022/07/28 04:52:57;;;;;;;;;5.00;3.33;;;;;20.22;40.72;101105.00;5078995;27;45382;-63
2022/07/28 04:55:23;;;;;;;;;5.00;5.00;;;;;20.22;40.91;101105.00;5078998;27;45380;-63
2022/07/28 04:57:49;;;;;;;;;5.33;4.00;;;;;20.21;40.52;101104.19;5078409;27;46048;-63
2022/07/28 05:00:15;;;;;;;;;3.25;3.00;;;;;20.19;40.79;101099.00;5078561;27;45324;-62
2022/07/28 05:02:43;;;;;;;;;5.00;3.00;;;;;20.21;40.55;101097.94;5078855;27;45291;-63
2022/07/28 05:05:08;;;;;;;;;5.33;5.33;;;;;20.22;40.65;101096.91;5079238;27;45538;-60
2022/07/28 05:07:34;;;;;;;;;3.00;3.00;;;;;20.20;40.65;101097.13;5079209;28;46789;-58
2022/07/28 05:10:01;;;;;;;;;2.00;2.00;;;;;20.29;40.94;101090.50;5079257;28;45258;-60
2022/07/28 05:12:26;;;;;;;;;3.50;3.50;;;;;20.31;40.93;101090.28;5079285;27;45212;-66
2022/07/28 05:14:51;;;;;;;;;4.50;3.00;;;;;20.30;40.71;101094.88;5079061;27;45397;-58
2022/07/28 05:17:17;;;;;;;;;8.67;4.00;;;;;20.37;40.57;101101.13;5079077;28;45416;-58
2022/07/28 05:19:42;;;;;;;;;5.00;5.00;;;;;20.38;41.07;101100.09;5078900;27;45401;-57
2022/07/28 05:22:08;;;;;;;;;4.25;4.00;;;;;20.42;41.12;101104.06;5078889;27;45372;-58
2022/07/28 05:24:33;;;;;;;;;4.00;2.75;;;;;20.43;40.81;101096.78;5078370;27;45441;-61
2022/07/28 05:26:58;;;;;;;;;7.33;6.33;;;;;20.43;40.61;101100.31;5077987;28;46358;-58
2022/07/28 05:29:24;;;;;;;;;7.00;5.00;;;;;20.37;40.77;101082.22;5077704;28;45313;-60
2022/07/28 05:31:49;;;;;;;;;5.00;5.00;;;;;20.54;40.63;101104.34;5077730;27;45490;-57
2022/07/28 05:34:15;;;;;;;;;5.33;5.33;;;;;20.59;40.58;101103.72;5078031;27;45375;-55
2022/07/28 05:36:40;;;;;;;;;6.33;4.33;;;;;20.62;40.85;101108.72;5077588;27;46294;-56
2022/07/28 05:39:06;;;;;;;;;6.67;5.00;;;;;20.64;40.93;101101.25;5077667;27;45427;-60
2022/07/28 05:41:31;;;;;;;;;6.00;5.00;;;;;20.66;40.31;101094.59;5077870;27;45434;-56
2022/07/28 05:43:57;;;;;;;;;5.75;4.50;;;;;20.70;40.57;101099.59;5077766;27;45523;-55
2022/07/28 05:46:23;;;;;;;;;6.00;3.00;;;;;20.73;40.39;101099.19;5077775;28;46133;-64
2022/07/28 05:48:48;;;;;;;;;5.00;5.00;;;;;20.75;40.57;101097.13;5077892;27;45355;-56
2022/07/28 05:51:13;;;;;;;;;5.25;4.00;;;;;20.81;40.88;101107.09;5077832;27;45237;-55
2022/07/28 05:53:39;;;;;;;;;8.25;5.25;;;;;20.86;40.47;101104.63;5077893;27;45340;-57
2022/07/28 05:56:05;;;;;;;;;7.00;4.00;;;;;20.86;40.63;101100.06;5077314;27;46054;-57
2022/07/28 05:58:30;;;;;;;;;5.00;5.00;;;;;20.84;40.49;101088.59;5077673;27;45321;-62
2022/07/28 06:01:00;;;;;;;;;4.00;3.75;;;;;20.95;40.14;101100.69;5077682;27;45346;-56
2022/07/28 06:03:27;;;;;;;;;5.00;4.00;;;;;21.00;40.44;101100.91;5077352;27;45525;-57
2022/07/28 06:05:55;;;;;;;;;4.50;4.00;;;;;21.02;40.19;101101.50;5077725;27;46246;-60
2022/07/28 06:08:23;;;;;;;;;5.50;4.25;;;;;21.10;39.66;101098.59;5077592;28;45237;-61
2022/07/28 06:11:00;;;;;;;;;5.25;4.25;;;;;21.14;39.71;101112.56;5077537;27;45509;-58
2022/07/28 06:13:26;;;;;;;;;3.00;3.00;;;;;21.19;39.58;101104.63;5078047;27;45273;-64
2022/07/28 06:15:51;;;;;;;;;4.00;4.00;;;;;21.26;39.78;101112.78;5077155;27;45924;-57
2022/07/28 06:18:18;;;;;;;;;5.50;5.50;;;;;21.21;39.62;101086.34;5077106;27;45343;-62
2022/07/28 06:20:45;;;;;;;;;5.00;4.00;;;;;21.32;39.72;101095.72;5077139;27;45327;-62
2022/07/28 06:23:11;;;;;;;;;4.75;4.00;;;;;21.49;39.20;101104.25;5077432;27;45179;-60
2022/07/28 06:25:36;;;;;;;;;4.00;4.00;;;;;21.51;39.43;101105.72;5077037;27;45931;-55
2022/07/28 06:28:02;;;;;;;;;7.00;4.00;;;;;21.57;38.86;101104.84;5080362;27;45298;-58
2022/07/28 06:30:29;;;;;;;;;4.25;4.25;;;;;21.58;39.22;101101.13;5080873;27;45423;-62
2022/07/28 06:32:55;;;;;;;;;4.50;4.50;;;;;21.62;38.74;101110.50;5080557;27;45319;-55
2022/07/28 06:35:21;;;;;;;;;5.25;4.00;;;;;21.61;38.51;101106.09;5080537;27;46446;-57
2022/07/28 06:37:48;;;;;;;;;6.50;5.00;;;;;21.61;38.75;101099.84;5079106;27;45360;-58
2022/07/28 06:40:14;;;;;;;;;4.50;4.50;;;;;21.65;38.31;101101.09;5080583;27;45297;-61
2022/07/28 06:42:41;;;;;;;;;5.00;5.00;;;;;21.79;38.19;101097.34;5080637;27;45451;-61
2022/07/28 06:45:08;;;;;;;;;8.00;5.00;;;;;21.92;38.49;101097.31;5080416;27;46391;-64
2022/07/28 06:47:34;;;;;;;;;6.25;5.00;;;;;22.15;38.41;101096.81;5079768;27;45396;-57
2022/07/28 06:50:00;;;;;;;;;5.00;5.00;;;;;22.31;37.71;101105.53;5080456;27;45350;-58
2022/07/28 06:52:25;;;;;;;;;7.50;6.00;;;;;22.45;37.50;101101.69;5079273;28;45352;-55
2022/07/28 06:54:52;;;;;;;;;4.50;4.00;;;;;22.70;37.16;101099.06;5080099;27;47225;-56
2022/07/28 06:57:19;;;;;;;;;5.75;5.00;;;;;22.99;37.07;101105.78;5080162;27;45287;-63
2022/07/28 06:59:45;;;;;;;;;5.25;4.50;;;;;23.24;36.58;101105.81;5080314;27;45396;-56
2022/07/28 07:02:12;;;;;;;;;7.00;4.00;;;;;23.37;36.19;101105.69;5080380;27;45442;-62
2022/07/28 07:04:37;;;;;;;;;5.50;5.50;;;;;23.36;35.81;101095.88;5080055;27;45482;-64
2022/07/28 07:07:03;;;;;;;;;8.25;5.75;;;;;23.46;35.91;101094.53;5080033;27;45424;-57
2022/07/28 07:09:28;;;;;;;;;6.25;3.50;;;;;23.55;35.97;101093.19;5080158;27;45371;-61
2022/07/28 07:11:54;;;;;;;;;5.75;4.50;;;;;23.64;35.50;101105.44;5080192;27;45296;-60
2022/07/28 07:14:19;;;;;;;;;6.50;6.00;;;;;23.68;35.26;101103.94;5080427;27;46363;-53
2022/07/28 07:16:45;;;;;;;;;7.00;4.50;;;;;23.79;35.25;101110.53;5080647;27;45392;-62
2022/07/28 07:19:10;;;;;;;;;5.75;4.00;;;;;23.87;35.50;101118.41;5079894;27;45561;-58
2022/07/28 07:21:35;;;;;;;;;6.00;4.00;;;;;23.84;35.42;101107.97;5080122;28;45318;-56
2022/07/28 07:24:01;;;;;;;;;9.75;6.25;;;;;23.84;35.26;101102.53;5079575;27;45997;-63
2022/07/28 07:26:27;;;;;;;;;7.25;5.00;;;;;23.92;35.09;101107.69;5079610;27;45488;-61
2022/07/28 07:28:52;;;;;;;;;8.25;5.00;;;;;24.20;34.86;101112.59;5080166;27;45927;-62
2022/07/28 07:31:17;;;;;;;;;6.75;4.75;;;;;24.66;34.40;101085.88;5080007;27;45290;-55
2022/07/28 07:33:43;;;;;;;;;7.00;7.00;;;;;25.00;33.93;101093.28;5079564;27;46194;-59
2022/07/28 07:36:08;;;;;;;;;6.00;6.00;;;;;25.29;33.58;101101.66;5079402;27;45315;-54
2022/07/28 07:38:33;;;;;;;;;9.00;6.75;;;;;26.30;31.99;101097.66;5079539;27;45225;-62
2022/07/28 07:40:59;;;;;;;;;5.75;4.00;;;;;27.42;30.25;101074.25;5079779;27;45209;-54
2022/07/28 07:43:25;;;;;;;;;4.50;4.50;;;;;27.82;29.80;101100.53;5079421;27;47188;-57
2022/07/28 07:45:51;;;;;;;;;5.20;3.80;;;;;28.32;29.01;101097.63;5079789;27;45359;-62
2022/07/28 07:48:17;;;;;;;;;10.00;6.80;;;;;28.99;28.87;101101.06;5079573;27;45482;-62
2022/07/28 07:50:43;;;;;;;;;4.75;4.75;;;;;29.59;27.01;101097.16;5079851;27;45317;-57
2022/07/28 07:53:08;;;;;;;;;4.25;4.00;;;;;29.60;27.12;101108.97;5079493;27;45367;-56
2022/07/28 07:55:33;;;;;;;;;4.00;4.00;;;;;29.62;27.58;101095.78;5079177;27;45296;-61
2022/07/28 07:57:59;;;;;;;;;13.00;5.50;;;;;30.19;26.11;101103.25;5079491;28;45308;-55
2022/07/28 08:00:24;;;;;;;;;4.75;4.75;;;;;29.64;27.55;101101.84;5079456;27;45407;-60
2022/07/28 08:02:50;;;;;;;;;5.00;5.00;;;;;28.99;27.43;101099.16;5078926;27;46175;-57
2022/07/28 08:05:16;;;;;;;;;5.00;4.00;;;;;28.58;28.23;101104.22;5079249;27;45320;-61
2022/07/28 08:07:42;;;;;;;;;6.00;5.00;;;;;28.51;28.82;101097.28;5079132;27;45247;-64
2022/07/28 08:10:08;;;;;;;;;7.50;6.00;;;;;30.27;27.27;101091.75;5079302;27;45284;-60
2022/07/28 08:12:33;;;;;;;;;5.00;4.00;;;;;32.49;24.08;101092.91;5078777;27;46369;-57
2022/07/28 08:14:58;;;;;;;;;4.00;4.00;;;;;35.13;21.46;101087.41;5079182;27;45363;-57
2022/07/28 08:17:24;;;;;;;;;4.25;3.75;;;;;36.97;20.04;101078.88;5079180;27;45376;-55
2022/07/28 08:19:49;;;;;;;;;4.75;4.75;;;;;38.60;18.14;101082.53;5078832;27;45170;-62
2022/07/28 08:22:15;;;;;;;;;5.00;4.00;;;;;39.88;16.57;101078.09;5078853;27;46268;-66
2022/07/28 08:24:41;;;;;;;;;9.00;5.00;;;;;40.56;16.92;101078.78;5077492;28;45305;-57
2022/07/28 08:27:07;;;;;;;;;7.00;5.25;;;;;41.58;15.23;101076.38;5079265;27;45407;-58
2022/07/28 08:29:32;;;;;;;;;7.00;5.00;;;;;41.88;16.00;101075.00;5078799;27;45725;-57
2022/07/28 08:31:58;;;;;;;;;4.00;4.00;;;;;42.16;15.41;101070.66;5078278;27;45601;-63
2022/07/28 08:34:24;;;;;;;;;4.50;4.50;;;;;42.42;15.23;101073.03;5078222;27;45510;-66
2022/07/28 08:36:50;;;;;;;;;4.20;3.20;;;;;43.38;14.51;101072.91;5078404;27;45457;-65
2022/07/28 08:39:15;;;;;;;;;8.50;5.00;;;;;43.46;13.90;101065.53;5078453;28;45372;-56
2022/07/28 08:42:14;;;;;;;;;7.00;5.75;;;;;44.15;14.46;101074.34;5077870;27;45554;-60
2022/07/28 08:45:03;;;;;;;;;4.00;4.00;;;;;45.11;13.33;101073.50;5078329;28;45382;-58
2022/07/28 08:47:30;;;;;;;;;5.40;4.00;;;;;46.37;12.13;101074.25;5078321;27;45348;-61
2022/07/28 08:50:00;;;;;;;;;6.40;5.20;;;;;47.29;11.39;101078.47;5077328;27;45300;-57
2022/07/28 08:52:31;;;;;;;;;9.00;4.00;;;;;47.74;11.37;101072.38;5077969;27;46319;-64
2022/07/28 08:54:59;;;;;;;;;5.20;4.80;;;;;47.70;11.74;101077.19;5078286;27;45420;-59
2022/07/28 08:57:30;;;;;;;;;4.60;4.60;;;;;47.77;11.33;101075.63;5078257;27;45363;-60
2022/07/28 08:59:55;;;;;;;;;6.00;4.00;;;;;47.82;11.67;101075.25;5078115;27;45391;-62
2022/07/28 09:02:24;;;;;;;;;4.75;4.75;;;;;47.89;11.08;101064.81;5077821;28;47065;-62
2022/07/28 09:04:51;;;;;;;;;5.80;4.80;;;;;48.01;11.12;101072.13;5077722;27;45544;-56
2022/07/28 09:07:17;;;;;;;;;6.80;6.80;;;;;46.97;11.55;101062.88;5077920;27;45526;-58
2022/07/28 09:09:46;;;;;;;;;5.80;4.60;;;;;46.10;12.00;101067.84;5076598;27;45483;-57
2022/07/28 09:12:11;;;;;;;;;3.80;3.80;;;;;45.43;12.99;101067.63;5077591;27;46449;-60
2022/07/28 09:14:37;;;;;;;;;4.25;3.75;;;;;44.81;12.86;101068.53;5076439;27;45387;-57
2022/07/28 09:17:02;;;;;;;;;4.25;3.75;;;;;44.50;13.16;101063.06;5078236;27;45459;-56
2022/07/28 09:19:28;;;;;;;;;4.00;4.00;;;;;44.03;12.93;101059.25;5077631;27;45457;-56
2022/07/28 09:21:58;;;;;;;;;5.00;4.75;;;;;44.22;13.33;101052.06;5077619;27;46180;-58
2022/07/28 09:24:38;;;;;;;;;7.60;3.40;;;;;44.65;12.84;101061.41;5077533;28;45364;-55
2022/07/28 09:27:07;;;;;;;;;3.00;3.00;;;;;45.05;12.57;101058.97;5077757;27;45253;-64
2022/07/28 09:29:33;;;;;;;;;5.00;4.00;;;;;44.65;12.58;101059.41;5077935;27;45241;-59
2022/07/28 09:31:59;;;;;;;;;3.60;3.60;;;;;43.89;13.46;101056.16;5078071;27;46257;-64
2022/07/28 09:34:24;;;;;;;;;4.50;4.25;;;;;42.90;13.87;101071.19;5077358;27;45318;-55
2022/07/28 09:36:51;;;;;;;;;5.75;5.25;;;;;43.19;13.45;101064.41;5077761;27;45317;-63
2022/07/28 09:39:33;;;;;;;;;7.80;4.20;;;;;44.38;13.22;101054.81;5076523;27;45429;-62
2022/07/28 09:41:59;;;;;;;;;6.00;5.00;;;;;45.07;12.27;101057.78;5077509;27;46447;-63
2022/07/28 09:44:26;;;;;;;;;4.00;4.00;;;;;45.73;11.66;101056.47;5077608;27;45419;-64
2022/07/28 09:46:53;;;;;;;;;4.40;4.20;;;;;45.12;12.39;101055.47;5076135;27;45416;-62
2022/07/28 09:49:19;;;;;;;;;4.40;4.40;;;;;45.54;11.85;101054.56;5077464;27;45487;-59
2022/07/28 09:52:02;;;;;;;;;4.00;3.50;;;;;46.10;12.12;101048.16;5077476;27;46926;-56
2022/07/28 09:54:27;;;;;;;;;3.40;3.20;;;;;46.55;11.21;101051.13;5076212;28;45445;-57
2022/07/28 09:56:53;;;;;;;;;3.00;2.75;;;;;46.68;11.72;101042.03;5077351;27;45298;-58
2022/07/28 09:59:18;;;;;;;;;3.00;3.00;;;;;47.06;11.20;101036.41;5077629;27;45312;-65
2022/07/28 10:01:54;;;;;;;;;3.25;2.50;;;;;47.74;11.24;101034.91;5077101;27;46184;-61
2022/07/28 10:04:30;;;;;;;;;2.00;2.00;;;;;48.24;10.22;101035.16;5076950;27;45229;-63
2022/07/28 10:07:05;;;;;;;;;3.00;2.80;;;;;47.08;10.56;101037.63;5077325;28;45528;-57
2022/07/28 10:09:31;;;;;;;;;4.00;4.00;;;;;46.56;10.60;101042.31;5077495;28;45286;-62
2022/07/28 10:12:19;;;;;;;;;3.60;2.00;;;;;44.68;12.66;101035.41;5077199;27;45200;-61
2022/07/28 10:14:46;;;;;;;;;1.80;1.80;;;;;44.37;12.00;101036.34;5077172;27;45577;-62
2022/07/28 10:17:28;;;;;;;;;2.80;2.80;;;;;43.27;13.30;101032.59;5077472;27;45377;-64
2022/07/28 10:19:57;;;;;;;;;2.40;1.00;;;;;42.39;12.70;101032.59;5077376;27;45458;-56
2022/07/28 10:22:27;;;;;;;;;2.00;2.00;;;;;41.31;13.87;101039.59;5075696;27;46870;-55
2022/07/28 10:24:53;;;;;;;;;2.40;1.20;;;;;40.75;13.71;101024.47;5077266;27;45254;-58
2022/07/28 10:27:22;;;;;;;;;2.20;2.20;;;;;40.92;14.14;101035.47;5077372;27;45473;-60
2022/07/28 10:30:02;;;;;;;;;1.20;1.20;;;;;41.10;14.42;101028.53;5077342;27;45353;-62
2022/07/28 10:32:32;;;;;;;;;1.40;1.40;;;;;40.35;14.80;101023.03;5077113;28;48103;-61
2022/07/28 10:35:06;;;;;;;;;1.00;1.00;;;;;40.08;14.52;101021.59;5076618;27;45529;-61
2022/07/28 10:37:37;;;;;;;;;3.60;3.60;;;;;40.14;14.75;101019.44;5077320;27;45294;-61
2022/07/28 10:40:08;;;;;;;;;1.00;1.00;;;;;40.53;14.69;101020.06;5077291;27;45666;-64
2022/07/28 10:42:34;;;;;;;;;3.80;3.00;;;;;41.42;14.12;101022.41;5077037;27;46505;-65
2022/07/28 10:45:02;;;;;;;;;3.20;2.20;;;;;41.09;13.86;101023.31;5077409;27;45268;-65
2022/07/28 10:47:27;;;;;;;;;3.60;3.00;;;;;40.62;14.26;101030.03;5077101;27;45220;-65
2022/07/28 10:49:54;;;;;;;;;5.50;2.00;;;;;40.45;14.67;101026.53;5077043;28;45513;-61
2022/07/28 10:52:20;;;;;;;;;2.40;2.40;;;;;39.61;15.00;101018.94;5076670;27;45350;-63
2022/07/28 10:55:15;;;;;;;;;3.00;1.20;;;;;39.35;15.15;101026.59;5077051;27;45273;-57
2022/07/28 10:57:58;;;;;;;;;5.00;2.80;;;;;39.40;15.54;101004.97;5076792;27;45327;-60
2022/07/28 11:00:26;;;;;;;;;2.00;2.00;;;;;39.14;15.30;101018.13;5076962;27;45379;-57
2022/07/28 11:02:57;;;;;;;;;4.80;3.00;;;;;39.37;15.10;101025.13;5076833;27;45335;-57
2022/07/28 11:05:39;;;;;;;;;1.00;1.00;;;;;39.99;14.74;101022.78;5076770;27;45307;-58
2022/07/28 11:08:25;;;;;;;;;3.80;2.00;;;;;41.22;14.14;101007.38;5076601;27;45293;-64
2022/07/28 11:10:52;;;;;;;;;2.20;2.20;;;;;41.57;13.52;101024.50;5077029;27;45249;-65
2022/07/28 11:13:25;;;;;;;;;2.60;2.40;;;;;41.63;13.57;101028.66;5078151;27;45355;-59
2022/07/28 11:15:51;;;;;;;;;0.40;0.40;;;;;42.06;13.79;101004.88;5080287;27;45237;-57
2022/07/28 11:18:16;;;;;;;;;3.00;2.60;;;;;42.35;13.17;101020.50;5080237;27;45245;-60
2022/07/28 11:20:51;;;;;;;;;2.75;2.75;;;;;41.54;13.36;101011.22;5079989;27;45340;-59
2022/07/28 11:23:35;;;;;;;;;4.80;3.20;;;;;39.97;14.56;101020.34;5079982;27;47128;-61
2022/07/28 11:26:33;;;;;;;;;3.20;3.00;;;;;38.68;15.65;101017.75;5079842;28;45324;-60
2022/07/28 11:28:58;;;;;;;;;2.60;2.60;;;;;37.59;16.57;101017.81;5080586;27;45398;-55
2022/07/28 11:31:42;;;;;;;;;1.75;1.75;;;;;36.62;16.90;101012.06;5080888;27;45430;-58